This is the latest recevied weather packets stored in our database for station/object W4JCW. If no packets are shown the sender has not sent any weather packets the latest 10 day(s).
| Time | Temp. | Humidity | Pressure | Rain* | Wind** | Luminosity | Snow |
|---|---|---|---|---|---|---|---|
| 1778123624 | 21.11° C | 89% | 1013.5 hPa | 17.53 mm | - | 0 W/m² | - |
| 1778123320 | 22.22° C | 87% | 1013 hPa | 14.48 mm | - | 0 W/m² | - |
| 1778123018 | 23.33° C | 81% | 1012.6 hPa | 4.32 mm | - | 0 W/m² | - |
| 1778122714 | 23.89° C | 75% | 1011.8 hPa | 0 mm | - | 0 W/m² | - |
| 1778122412 | 24.44° C | 72% | 1011.1 hPa | 0 mm | - | 0 W/m² | - |
| 1778122110 | 24.44° C | 70% | 1011 hPa | 0 mm | - | 0 W/m² | - |
| 1778121807 | 25° C | 69% | 1010.7 hPa | 0 mm | - | 0 W/m² | - |
| 1778121503 | 25° C | 69% | 1010.7 hPa | 0 mm | - | 0 W/m² | - |
| 1778121199 | 25° C | 69% | 1010.4 hPa | 0 mm | - | 0 W/m² | - |
| 1778120897 | 25° C | 68% | 1010.5 hPa | 0 mm | - | 0 W/m² | - |
| 1778120593 | 25° C | 68% | 1010.1 hPa | 0 mm | - | 0 W/m² | - |
| 1778120289 | 25° C | 67% | 1010.3 hPa | 0 mm | - | 0 W/m² | - |
| 1778119985 | 25° C | 67% | 1010.1 hPa | 0 mm | - | 0 W/m² | - |
| 1778119683 | 25° C | 66% | 1010.2 hPa | 0 mm | - | 0 W/m² | - |
| 1778119379 | 25° C | 66% | 1010 hPa | 0 mm | - | 0 W/m² | - |
| 1778119077 | 25.56° C | 65% | 1009.6 hPa | 0 mm | - | 0 W/m² | - |
| 1778118774 | 25.56° C | 65% | 1010 hPa | 0 mm | - | 0 W/m² | - |
| 1778118471 | 25° C | 64% | 1010.5 hPa | 0 mm | - | 0 W/m² | - |
| 1778118167 | 25° C | 64% | 1010 hPa | 0 mm | - | 0 W/m² | - |
| 1778117864 | 25° C | 65% | 1010.2 hPa | 0 mm | - | 0 W/m² | - |
| 1778117561 | 25° C | 64% | 1009.9 hPa | 0 mm | - | 0 W/m² | - |
| 1778117259 | 25° C | 65% | 1009.8 hPa | 0 mm | - | 0 W/m² | - |
| 1778116954 | 25° C | 65% | 1009.8 hPa | 0 mm | - | 0 W/m² | - |
| 1778116652 | 25° C | 66% | 1009.8 hPa | 0 mm | - | 0 W/m² | - |
| 1778116348 | 25° C | 66% | 1009.7 hPa | 0 mm | - | 0 W/m² | - |
* Rain latest hour (hover to see other rain measurements)
** Current wind speed in m/s (hover to see current wind gust speed)